createdAt,value
2018-09-01T00:00:35.582Z,76.07
2018-09-01T00:01:14.312Z,76.39
2018-09-01T00:01:53.268Z,76.21
2018-09-01T00:02:32.241Z,76.57
2018-09-01T00:03:10.950Z,76.30
2018-09-01T00:03:49.665Z,75.80
2018-09-01T00:04:30.209Z,75.39
2018-09-01T00:05:08.790Z,76.54
2018-09-01T00:05:47.408Z,75.95
2018-09-01T00:06:27.575Z,75.70
2018-09-01T00:07:06.185Z,76.58
2018-09-01T00:07:45.814Z,76.24
2018-09-01T00:08:25.485Z,76.46
2018-09-01T00:09:04.098Z,75.10
2018-09-01T00:09:45.451Z,75.06
2018-09-01T00:10:24.629Z,74.91
2018-09-01T00:11:05.008Z,76.02
2018-09-01T00:11:43.741Z,75.56
2018-09-01T00:12:22.561Z,76.19
2018-09-01T00:13:01.173Z,75.29
2018-09-01T00:13:39.834Z,76.20
2018-09-01T00:14:18.554Z,75.81
2018-09-01T00:14:57.646Z,75.22
2018-09-01T00:15:36.570Z,76.44
2018-09-01T00:16:15.259Z,75.66
2018-09-01T00:16:53.900Z,75.37
2018-09-01T00:17:33.624Z,75.07
2018-09-01T00:18:14.265Z,76.29
2018-09-01T00:18:52.987Z,75.82
2018-09-01T00:19:31.839Z,76.03
2018-09-01T00:20:10.698Z,76.29
2018-09-01T00:20:50.138Z,76.28
2018-09-01T00:21:28.956Z,76.51
2018-09-01T00:22:07.562Z,75.57
2018-09-01T00:22:46.081Z,76.25
2018-09-01T00:23:25.235Z,75.69
2018-09-01T00:24:07.652Z,76.20
2018-09-01T00:24:46.170Z,76.36
2018-09-01T00:25:24.712Z,77.38
2018-09-01T00:26:03.287Z,75.71
2018-09-01T00:26:43.252Z,76.35
2018-09-01T00:27:21.825Z,76.27
2018-09-01T00:28:00.668Z,76.48
2018-09-01T00:28:39.195Z,76.35
2018-09-01T00:29:17.724Z,75.91
2018-09-01T00:29:56.029Z,76.14
2018-09-01T00:30:34.568Z,76.28
2018-09-01T00:31:13.076Z,76.11
2018-09-01T00:31:51.591Z,76.51
2018-09-01T00:32:30.024Z,76.29
2018-09-01T00:33:08.738Z,77.13
2018-09-01T00:33:47.219Z,76.22
2018-09-01T00:34:25.633Z,76.58
2018-09-01T00:35:03.965Z,76.44
2018-09-01T00:35:42.508Z,76.19
2018-09-01T00:36:20.812Z,77.09
2018-09-01T00:36:58.840Z,76.72
2018-09-01T00:37:41.061Z,77.19
2018-09-01T00:38:23.132Z,75.98
2018-09-01T00:39:04.267Z,76.17
2018-09-01T00:39:46.074Z,77.04
2018-09-01T00:40:28.041Z,75.85
2018-09-01T00:41:05.960Z,75.70
2018-09-01T00:41:43.898Z,76.67
2018-09-01T00:42:21.790Z,76.37
2018-09-01T00:43:02.625Z,76.12
2018-09-01T00:43:40.717Z,76.03
2018-09-01T00:44:18.643Z,76.67
2018-09-01T00:44:56.721Z,76.16
2018-09-01T00:45:34.702Z,75.45
2018-09-01T00:46:12.697Z,77.08
2018-09-01T00:46:50.656Z,76.80
2018-09-01T00:47:28.682Z,76.78
2018-09-01T00:48:06.800Z,75.49
2018-09-01T00:48:44.789Z,75.19
2018-09-01T00:49:22.676Z,76.17
2018-09-01T00:50:01.018Z,75.12
2018-09-01T00:50:38.976Z,76.30
2018-09-01T00:51:18.038Z,76.23
2018-09-01T00:51:56.089Z,75.04
2018-09-01T00:52:34.018Z,76.42
2018-09-01T00:53:12.107Z,75.62
2018-09-01T00:53:50.484Z,74.85
2018-09-01T00:54:34.355Z,75.20
2018-09-01T00:55:15.750Z,75.28
2018-09-01T00:55:53.650Z,74.49
2018-09-01T00:56:31.704Z,75.73
2018-09-01T00:57:09.731Z,74.78
2018-09-01T00:57:47.780Z,75.43
2018-09-01T00:58:25.821Z,75.13
2018-09-01T00:59:03.858Z,74.00
2018-09-01T00:59:41.864Z,74.79
2018-09-01T01:00:19.807Z,74.18
2018-09-01T01:00:57.809Z,73.73
2018-09-01T01:01:35.886Z,73.45
2018-09-01T01:02:13.984Z,73.44
2018-09-01T01:02:52.816Z,73.49
2018-09-01T01:03:30.853Z,73.70
2018-09-01T01:04:08.900Z,73.16
2018-09-01T01:04:46.851Z,73.29
2018-09-01T01:05:25.001Z,74.17
2018-09-01T01:06:03.111Z,74.27
2018-09-01T01:06:41.120Z,72.88
2018-09-01T01:07:19.308Z,73.57
2018-09-01T01:07:57.309Z,72.65
2018-09-01T01:08:35.323Z,73.13
2018-09-01T01:09:13.318Z,72.48
2018-09-01T01:09:51.283Z,71.65
2018-09-01T01:10:29.281Z,72.16
2018-09-01T01:11:07.525Z,71.65
2018-09-01T01:11:45.621Z,71.81
2018-09-01T01:12:23.694Z,71.71
2018-09-01T01:13:01.633Z,70.99
2018-09-01T01:13:39.686Z,70.74
2018-09-01T01:14:17.632Z,70.49
2018-09-01T01:14:55.540Z,70.51
2018-09-01T01:15:33.582Z,70.45
2018-09-01T01:16:11.567Z,71.33
2018-09-01T01:16:49.541Z,70.25
2018-09-01T01:17:27.449Z,70.85
2018-09-01T01:18:05.508Z,70.44
2018-09-01T01:18:43.464Z,70.29
2018-09-01T01:19:22.171Z,69.69
2018-09-01T01:20:00.183Z,69.66
2018-09-01T01:20:38.125Z,70.23
2018-09-01T01:21:16.129Z,70.85
2018-09-01T01:21:54.504Z,70.23
2018-09-01T01:22:32.481Z,69.71
2018-09-01T01:23:10.545Z,69.58
2018-09-01T01:23:48.522Z,68.92
2018-09-01T01:24:26.471Z,68.97
2018-09-01T01:25:04.568Z,68.60
2018-09-01T01:25:42.731Z,68.08
2018-09-01T01:26:20.793Z,67.47
2018-09-01T01:26:58.960Z,67.11
2018-09-01T01:27:37.000Z,66.32
2018-09-01T01:28:15.052Z,66.37
2018-09-01T01:28:53.137Z,65.83
2018-09-01T01:29:31.416Z,65.45
2018-09-01T01:30:09.580Z,65.74
2018-09-01T01:30:47.593Z,65.32
2018-09-01T01:31:25.512Z,64.65
2018-09-01T01:32:03.575Z,64.50
2018-09-01T01:32:41.454Z,63.81
2018-09-01T01:33:19.465Z,63.51
2018-09-01T01:33:57.732Z,63.28
2018-09-01T01:34:35.792Z,62.99
2018-09-01T01:35:13.769Z,62.06
2018-09-01T01:35:51.668Z,61.72
2018-09-01T01:36:29.728Z,61.54
2018-09-01T01:37:07.686Z,61.42
2018-09-01T01:37:45.826Z,60.88
2018-09-01T01:38:23.934Z,60.80
2018-09-01T01:39:01.899Z,60.42
2018-09-01T01:39:39.948Z,59.67
2018-09-01T01:40:19.060Z,59.74
2018-09-01T01:40:57.108Z,59.88
2018-09-01T01:41:35.123Z,58.91
2018-09-01T01:42:13.434Z,59.26
2018-09-01T01:42:51.758Z,58.97
2018-09-01T01:43:29.778Z,59.00
2018-09-01T01:44:07.828Z,58.06
2018-09-01T01:44:45.790Z,57.96
2018-09-01T01:45:23.889Z,58.90
2018-09-01T01:46:01.874Z,58.17
2018-09-01T01:46:39.836Z,58.04
2018-09-01T01:47:18.816Z,56.86
2018-09-01T01:47:56.838Z,57.73
2018-09-01T01:48:35.873Z,56.39
2018-09-01T01:49:13.946Z,56.62
2018-09-01T01:49:52.020Z,57.38
2018-09-01T01:50:29.943Z,56.19
2018-09-01T01:51:07.900Z,56.49
2018-09-01T01:51:46.031Z,56.07
2018-09-01T01:52:23.994Z,55.85
2018-09-01T01:53:01.946Z,56.17
2018-09-01T01:53:39.829Z,56.94
2018-09-01T01:54:17.860Z,56.31
2018-09-01T01:54:55.899Z,56.74
2018-09-01T01:55:33.989Z,55.21
2018-09-01T01:56:11.958Z,55.67
2018-09-01T01:56:49.962Z,56.12
2018-09-01T01:57:27.899Z,56.46
2018-09-01T01:58:05.828Z,55.49
2018-09-01T01:58:43.798Z,54.86
2018-09-01T01:59:21.903Z,54.46
2018-09-01T01:59:59.830Z,55.25
2018-09-01T02:00:37.864Z,54.63
2018-09-01T02:01:15.833Z,54.35
2018-09-01T02:01:53.834Z,54.47
2018-09-01T02:02:31.959Z,54.68
2018-09-01T02:03:10.155Z,53.85
2018-09-01T02:03:48.336Z,54.48
2018-09-01T02:04:26.444Z,54.46
2018-09-01T02:05:05.489Z,53.25
2018-09-01T02:05:43.468Z,54.06
2018-09-01T02:06:21.489Z,54.07
2018-09-01T02:06:59.501Z,53.46
2018-09-01T02:07:37.518Z,52.81
2018-09-01T02:08:15.507Z,53.44
2018-09-01T02:08:53.536Z,53.79
2018-09-01T02:09:31.620Z,53.69
2018-09-01T02:10:09.583Z,53.76
2018-09-01T02:10:47.808Z,53.37
2018-09-01T02:11:25.722Z,52.33
2018-09-01T02:12:03.760Z,52.89
2018-09-01T02:12:41.979Z,52.90
2018-09-01T02:13:20.103Z,52.37
2018-09-01T02:13:58.212Z,52.40
2018-09-01T02:14:36.215Z,52.31
2018-09-01T02:15:14.228Z,51.97
2018-09-01T02:15:52.168Z,51.87
2018-09-01T02:16:30.153Z,52.32
2018-09-01T02:17:08.660Z,51.48
2018-09-01T02:17:46.637Z,52.10
2018-09-01T02:18:24.725Z,52.11
2018-09-01T02:19:02.761Z,52.47
2018-09-01T02:19:40.725Z,51.33
2018-09-01T02:20:19.367Z,51.55
2018-09-01T02:20:57.412Z,50.77
2018-09-01T02:21:35.655Z,49.82
2018-09-01T02:22:13.782Z,49.49
2018-09-01T02:22:51.863Z,49.95
2018-09-01T02:23:29.899Z,50.13
2018-09-01T02:24:09.128Z,50.31
2018-09-01T02:24:47.198Z,50.10
2018-09-01T02:25:25.360Z,49.92
2018-09-01T02:26:03.306Z,50.09
2018-09-01T02:26:41.734Z,49.99
2018-09-01T02:27:19.788Z,50.42
2018-09-01T02:27:57.753Z,49.11
2018-09-01T02:28:35.923Z,49.93
2018-09-01T02:29:13.986Z,49.55
2018-09-01T02:29:51.945Z,49.36
2018-09-01T02:30:29.801Z,49.63
2018-09-01T02:31:08.081Z,48.83
2018-09-01T02:31:46.004Z,49.24
2018-09-01T02:32:23.952Z,48.58
2018-09-01T02:33:01.931Z,49.30
2018-09-01T02:33:39.889Z,48.89
2018-09-01T02:34:17.888Z,49.32
2018-09-01T02:34:56.077Z,49.20
2018-09-01T02:35:34.157Z,48.45
2018-09-01T02:36:13.328Z,49.05
2018-09-01T02:36:51.458Z,48.66
2018-09-01T02:37:29.410Z,48.89
2018-09-01T02:38:07.541Z,49.02
2018-09-01T02:38:45.742Z,48.65
2018-09-01T02:39:23.751Z,48.40
2018-09-01T02:40:01.638Z,47.94
2018-09-01T02:40:39.805Z,48.08
2018-09-01T02:41:17.821Z,47.92
2018-09-01T02:41:55.811Z,48.27
2018-09-01T02:42:33.797Z,47.39
2018-09-01T02:43:11.805Z,48.18
2018-09-01T02:43:50.391Z,47.25
2018-09-01T02:44:28.357Z,47.35
2018-09-01T02:45:06.357Z,47.26
2018-09-01T02:45:44.354Z,47.14
2018-09-01T02:46:22.356Z,47.63
2018-09-01T02:47:00.422Z,46.88
2018-09-01T02:47:38.446Z,47.03
2018-09-01T03:02:33.274Z,46.39
2018-09-01T03:03:11.441Z,46.28
2018-09-01T03:03:49.433Z,46.10
2018-09-01T03:04:27.571Z,45.55
2018-09-01T03:05:05.645Z,46.04
2018-09-01T03:05:43.543Z,45.99
2018-09-01T03:06:21.665Z,45.64
2018-09-01T03:07:01.675Z,45.16
2018-09-01T03:07:39.597Z,44.88
2018-09-01T03:08:17.681Z,45.33
2018-09-01T03:08:55.632Z,44.69
2018-09-01T03:09:33.609Z,45.01
2018-09-01T03:10:11.589Z,44.54
2018-09-01T03:10:49.605Z,43.91
2018-09-01T03:11:27.788Z,44.00
2018-09-01T03:12:05.691Z,44.40
2018-09-01T03:12:43.676Z,44.22
2018-09-01T03:13:21.816Z,45.26
2018-09-01T03:13:59.664Z,45.09
2018-09-01T03:14:37.552Z,45.40
2018-09-01T03:15:15.436Z,44.85
2018-09-01T03:15:53.470Z,45.35
2018-09-01T03:16:31.477Z,45.43
2018-09-01T03:17:10.357Z,44.85
2018-09-01T03:17:48.346Z,44.76
2018-09-01T03:18:26.393Z,44.47
2018-09-01T03:19:04.528Z,45.15
2018-09-01T03:19:42.475Z,44.52
2018-09-01T03:20:20.536Z,44.76
2018-09-01T03:20:58.501Z,45.10
2018-09-01T03:21:36.768Z,44.80
2018-09-01T03:22:14.780Z,45.13
2018-09-01T03:22:52.833Z,45.08
2018-09-01T03:23:30.902Z,44.65
2018-09-01T03:24:08.983Z,44.59
2018-09-01T03:24:46.907Z,44.63
2018-09-01T03:25:25.044Z,45.01
2018-09-01T03:26:03.236Z,44.06
2018-09-01T03:26:41.266Z,44.61
2018-09-01T03:27:19.236Z,43.84
2018-09-01T03:27:57.135Z,44.51
2018-09-01T03:28:35.062Z,44.67
2018-09-01T03:29:13.376Z,45.53
2018-09-01T03:29:51.517Z,45.98
2018-09-01T03:30:29.627Z,46.37
2018-09-01T03:31:07.653Z,46.53
2018-09-01T03:31:45.669Z,46.61
2018-09-01T03:32:23.791Z,46.70
2018-09-01T03:33:01.740Z,46.20
2018-09-01T03:33:41.525Z,46.15
2018-09-01T03:34:19.611Z,46.62
2018-09-01T03:34:57.630Z,45.68
2018-09-01T03:35:35.644Z,45.91
2018-09-01T03:36:13.684Z,45.87
2018-09-01T03:36:51.802Z,45.75
2018-09-01T03:37:29.759Z,46.02
2018-09-01T03:38:08.008Z,45.50
2018-09-01T03:38:46.064Z,45.92
2018-09-01T03:39:25.008Z,45.33
2018-09-01T03:40:03.074Z,45.75
2018-09-01T03:40:41.101Z,45.53
2018-09-01T03:41:19.256Z,45.37
2018-09-01T03:41:57.338Z,45.29
2018-09-01T03:42:35.663Z,46.31
2018-09-01T03:43:13.969Z,45.67
2018-09-01T03:43:52.218Z,45.48
2018-09-01T03:44:30.560Z,46.26
2018-09-01T03:45:09.160Z,45.72
2018-09-01T03:45:47.495Z,45.48
2018-09-01T03:46:26.950Z,45.32
2018-09-01T03:47:05.656Z,45.39
2018-09-01T03:47:43.906Z,45.45
2018-09-01T03:48:22.034Z,45.45
2018-09-01T03:49:01.918Z,46.37
2018-09-01T03:49:40.325Z,45.13
2018-09-01T03:50:18.404Z,45.32
2018-09-01T03:50:56.426Z,45.45
2018-09-01T03:51:34.363Z,44.98
2018-09-01T03:52:12.267Z,43.89
2018-09-01T03:52:51.092Z,43.77
2018-09-01T03:53:29.167Z,43.23
2018-09-01T03:54:08.360Z,43.16
2018-09-01T03:54:46.321Z,42.13
2018-09-01T03:55:24.276Z,42.23
2018-09-01T03:56:02.573Z,40.76
2018-09-01T03:56:40.687Z,40.65
2018-09-01T03:57:18.685Z,40.76
2018-09-01T03:57:56.774Z,40.75
2018-09-01T03:58:34.920Z,41.52
2018-09-01T03:59:12.997Z,40.93
2018-09-01T03:59:51.110Z,40.81
2018-09-01T04:00:29.580Z,41.03
2018-09-01T04:01:07.607Z,41.81
2018-09-01T04:01:45.683Z,40.84
2018-09-01T04:02:23.759Z,40.68
2018-09-01T04:03:01.965Z,41.41
2018-09-01T04:03:39.909Z,40.22
2018-09-01T04:04:18.106Z,40.57
2018-09-01T04:04:56.530Z,40.42
2018-09-01T04:05:34.584Z,39.77
2018-09-01T04:06:16.886Z,40.28
2018-09-01T04:06:54.850Z,40.14
2018-09-01T04:07:32.772Z,39.56
2018-09-01T04:08:10.894Z,39.96
2018-09-01T04:08:49.112Z,40.19
2018-09-01T04:09:26.994Z,40.05
2018-09-01T04:10:05.069Z,39.15
2018-09-01T04:10:42.976Z,38.79
2018-09-01T04:11:20.924Z,39.17
2018-09-01T04:11:58.833Z,38.73
2018-09-01T04:12:36.957Z,39.11
2018-09-01T04:13:14.954Z,38.87
2018-09-01T04:13:52.967Z,38.06
2018-09-01T04:14:31.014Z,38.22
2018-09-01T04:15:09.552Z,38.47
2018-09-01T04:15:47.535Z,38.38
2018-09-01T04:16:25.608Z,38.33
2018-09-01T04:17:03.571Z,39.02
2018-09-01T04:17:41.638Z,39.00
2018-09-01T04:18:19.825Z,38.82
2018-09-01T04:18:58.043Z,38.53
2018-09-01T04:19:36.067Z,38.71
2018-09-01T04:20:14.129Z,38.33
2018-09-01T04:20:52.035Z,38.68
2018-09-01T04:21:29.939Z,38.80
2018-09-01T04:22:07.815Z,38.34
2018-09-01T04:22:45.786Z,38.04
2018-09-01T04:23:23.941Z,37.72
2018-09-01T04:24:01.871Z,38.08
2018-09-01T04:24:40.591Z,37.84
2018-09-01T04:25:18.556Z,38.00
2018-09-01T04:25:56.646Z,37.98
2018-09-01T04:26:34.646Z,37.40
2018-09-01T04:27:12.720Z,37.36
2018-09-01T04:27:50.631Z,37.80
2018-09-01T04:28:28.705Z,37.28
2018-09-01T04:29:06.675Z,37.68
2018-09-01T04:29:44.713Z,37.78
2018-09-01T04:30:22.756Z,38.07
2018-09-01T04:31:00.788Z,38.32
2018-09-01T04:31:39.526Z,38.43
2018-09-01T04:32:17.513Z,38.17
2018-09-01T04:32:55.561Z,38.31
2018-09-01T04:33:33.618Z,38.16
2018-09-01T04:34:11.636Z,37.77
2018-09-01T04:34:49.667Z,37.50
2018-09-01T04:35:27.652Z,38.36
2018-09-01T04:36:05.672Z,37.56
2018-09-01T04:36:43.616Z,37.75
2018-09-01T04:37:21.672Z,37.39
2018-09-01T04:37:59.647Z,37.88
2018-09-01T04:38:37.591Z,37.80
2018-09-01T04:39:16.156Z,38.06
2018-09-01T04:39:55.500Z,37.57
2018-09-01T04:40:33.520Z,37.79
2018-09-01T04:41:11.482Z,37.55
2018-09-01T04:41:49.501Z,37.22
2018-09-01T04:42:27.414Z,37.59
2018-09-01T04:43:05.407Z,37.32
2018-09-01T04:43:43.383Z,37.44
2018-09-01T04:44:21.439Z,37.67
2018-09-01T04:44:59.364Z,36.66
2018-09-01T04:45:37.453Z,36.70
2018-09-01T04:46:15.520Z,36.88
2018-09-01T04:46:53.668Z,36.65
2018-09-01T04:47:32.289Z,37.02
2018-09-01T04:48:10.301Z,36.80
2018-09-01T04:48:48.317Z,37.06
2018-09-01T04:49:26.609Z,36.82
2018-09-01T04:50:04.846Z,37.00
2018-09-01T04:50:43.156Z,37.44
2018-09-01T04:51:21.188Z,37.29
2018-09-01T04:51:59.268Z,37.44
2018-09-01T04:52:37.168Z,37.35
2018-09-01T04:53:15.393Z,36.58
2018-09-01T04:53:53.372Z,37.36
2018-09-01T04:54:31.377Z,37.75
2018-09-01T04:55:09.427Z,36.85
2018-09-01T04:55:47.435Z,37.57
2018-09-01T04:56:25.777Z,37.05
2018-09-01T04:57:03.778Z,37.34
2018-09-01T04:57:41.955Z,37.34
2018-09-01T04:58:19.974Z,37.23
2018-09-01T04:58:58.083Z,37.74
2018-09-01T04:59:36.072Z,37.78
2018-09-01T05:01:13.161Z,37.44
2018-09-01T05:01:51.332Z,37.29
2018-09-01T05:02:29.451Z,37.22
2018-09-01T05:03:07.470Z,37.29
2018-09-01T05:03:45.484Z,36.63
2018-09-01T05:04:23.567Z,37.05
2018-09-01T05:05:01.671Z,37.15
2018-09-01T05:05:39.752Z,37.53
2018-09-01T05:06:17.805Z,36.78
2018-09-01T05:06:55.891Z,37.05
2018-09-01T05:07:33.859Z,37.15
2018-09-01T05:08:11.782Z,37.56
2018-09-01T05:08:49.979Z,37.03
2018-09-01T05:09:27.912Z,37.60
2018-09-01T05:10:06.164Z,36.89
2018-09-01T05:10:44.199Z,36.85
2018-09-01T05:11:22.185Z,36.84
2018-09-01T05:12:00.135Z,36.67
2018-09-01T05:12:38.155Z,37.09
2018-09-01T05:13:16.307Z,37.39
2018-09-01T05:13:54.322Z,37.48
2018-09-01T05:14:32.473Z,37.06
2018-09-01T05:15:10.538Z,36.82
2018-09-01T05:15:48.772Z,36.72
2018-09-01T05:16:26.881Z,37.02
2018-09-01T05:17:05.766Z,36.48
2018-09-01T05:17:43.789Z,37.17
2018-09-01T05:18:21.772Z,37.17
2018-09-01T05:19:00.170Z,36.71
2018-09-01T05:19:38.199Z,36.88
2018-09-01T05:20:16.903Z,37.29
2018-09-01T05:20:54.948Z,37.26
2018-09-01T05:21:32.926Z,37.09
2018-09-01T05:22:11.022Z,37.42
2018-09-01T05:22:48.959Z,37.59
2018-09-01T05:23:27.065Z,36.98
2018-09-01T05:24:05.130Z,36.73
2018-09-01T05:24:43.327Z,36.79
2018-09-01T05:25:21.437Z,36.81
2018-09-01T05:25:59.455Z,36.72
2018-09-01T05:26:37.502Z,36.44
2018-09-01T05:27:15.449Z,36.63
2018-09-01T05:27:53.684Z,36.94
2018-09-01T05:28:31.766Z,36.71
2018-09-01T05:29:09.764Z,36.44
2018-09-01T05:29:47.821Z,36.42
2018-09-01T05:30:25.773Z,36.43
2018-09-01T05:31:03.765Z,36.61
2018-09-01T05:31:41.761Z,35.84
2018-09-01T05:32:22.123Z,36.71
2018-09-01T05:33:00.492Z,36.26
2018-09-01T05:33:39.560Z,36.06
2018-09-01T05:34:17.640Z,36.62
2018-09-01T05:34:55.640Z,36.78
2018-09-01T05:35:33.676Z,36.75
2018-09-01T05:36:11.675Z,36.33
2018-09-01T05:36:49.852Z,35.97
2018-09-01T05:37:27.915Z,36.29
2018-09-01T05:38:06.087Z,36.51
2018-09-01T05:38:44.257Z,36.82
2018-09-01T05:39:22.295Z,36.28
2018-09-01T05:40:00.289Z,36.32
2018-09-01T05:40:38.211Z,36.24
2018-09-01T05:41:16.361Z,36.91
2018-09-01T05:41:54.309Z,37.31
2018-09-01T05:42:32.320Z,37.03
2018-09-01T05:43:10.327Z,37.00
2018-09-01T05:43:48.522Z,37.13
2018-09-01T05:44:26.672Z,36.47
2018-09-01T05:45:05.536Z,36.55
2018-09-01T05:45:43.518Z,36.60
2018-09-01T05:46:21.460Z,37.18
2018-09-01T05:46:59.599Z,36.55
2018-09-01T05:47:37.714Z,37.22
2018-09-01T05:48:15.797Z,37.25
2018-09-01T05:48:53.832Z,36.96
2018-09-01T05:49:31.963Z,36.75
2018-09-01T05:50:09.990Z,36.99
2018-09-01T05:50:48.098Z,37.59
2018-09-01T05:51:26.096Z,37.21
2018-09-01T05:52:04.202Z,37.97
2018-09-01T05:52:42.397Z,37.71
2018-09-01T05:53:20.474Z,37.33
2018-09-01T05:53:58.519Z,37.00
2018-09-01T05:54:36.391Z,36.97
2018-09-01T05:55:14.407Z,37.19
2018-09-01T05:55:52.368Z,37.44
2018-09-01T05:56:30.356Z,36.94
2018-09-01T05:57:08.521Z,36.52
2018-09-01T05:57:46.544Z,37.15
2018-09-01T05:58:24.584Z,36.34
2018-09-01T05:59:02.801Z,37.00
2018-09-01T05:59:40.798Z,36.34
2018-09-01T06:00:24.594Z,37.19
2018-09-01T06:01:02.992Z,37.32
2018-09-01T06:01:41.094Z,36.16
2018-09-01T06:02:19.202Z,36.16
2018-09-01T06:02:57.455Z,36.65
2018-09-01T06:03:35.632Z,37.09
2018-09-01T06:04:13.688Z,36.60
2018-09-01T06:04:54.451Z,36.59
2018-09-01T06:05:34.984Z,37.08
2018-09-01T06:06:13.365Z,36.34
2018-09-01T06:06:52.662Z,36.43
2018-09-01T06:07:32.572Z,35.66
2018-09-01T06:08:11.773Z,35.60
2018-09-01T06:08:49.880Z,35.58
2018-09-01T06:09:27.835Z,36.21
2018-09-01T06:10:05.827Z,36.28
2018-09-01T06:10:43.739Z,36.61
2018-09-01T06:11:21.986Z,36.46
2018-09-01T06:12:00.029Z,36.48
2018-09-01T06:12:38.198Z,36.54
2018-09-01T06:13:16.209Z,36.30
2018-09-01T06:13:54.306Z,37.02
2018-09-01T06:14:32.240Z,37.06
2018-09-01T06:15:10.552Z,36.85
2018-09-01T06:15:48.615Z,36.41
2018-09-01T06:16:27.573Z,36.70
2018-09-01T06:17:05.660Z,36.67
2018-09-01T06:17:43.719Z,37.65
2018-09-01T06:18:21.932Z,37.80
2018-09-01T06:19:00.041Z,37.81
2018-09-01T06:19:38.070Z,37.51
2018-09-01T06:20:17.240Z,37.75
2018-09-01T06:20:55.153Z,36.95
2018-09-01T06:21:33.123Z,37.62
2018-09-01T06:22:11.185Z,37.95
2018-09-01T06:22:49.083Z,37.67
2018-09-01T06:23:29.754Z,37.56
2018-09-01T06:24:07.918Z,38.03
2018-09-01T06:24:46.948Z,38.22
2018-09-01T06:25:24.852Z,38.22
2018-09-01T06:26:02.820Z,37.73
2018-09-01T06:26:40.761Z,38.58
2018-09-01T06:27:27.731Z,38.39
2018-09-01T06:28:12.310Z,38.90
2018-09-01T06:28:56.428Z,37.66
2018-09-01T06:29:34.541Z,37.92
2018-09-01T06:30:19.781Z,37.91
2018-09-01T06:30:58.584Z,38.09
2018-09-01T06:31:36.980Z,38.16
2018-09-01T06:32:15.293Z,37.27
2018-09-01T06:32:53.543Z,36.74
2018-09-01T06:33:31.875Z,37.77
2018-09-01T06:34:09.972Z,38.03
2018-09-01T06:34:47.998Z,38.04
2018-09-01T06:35:26.136Z,37.36
2018-09-01T06:36:04.301Z,36.27
2018-09-01T06:36:42.348Z,36.51
2018-09-01T06:37:20.395Z,36.57
2018-09-01T06:37:58.767Z,37.20
2018-09-01T06:38:36.724Z,37.42
2018-09-01T06:39:14.601Z,37.10
2018-09-01T06:39:52.600Z,37.41
2018-09-01T06:40:30.645Z,37.49
2018-09-01T06:41:09.076Z,37.70
2018-09-01T06:41:47.058Z,38.08
2018-09-01T06:42:26.143Z,38.02
2018-09-01T06:43:04.048Z,37.50
2018-09-01T06:43:42.066Z,37.06
2018-09-01T06:44:20.208Z,36.67
2018-09-01T06:44:58.294Z,37.01
2018-09-01T06:45:36.290Z,37.74
2018-09-01T06:46:14.269Z,37.77
2018-09-01T06:46:52.592Z,37.51
2018-09-01T06:47:30.767Z,37.43
2018-09-01T06:48:09.007Z,37.01
2018-09-01T06:48:47.046Z,38.17
2018-09-01T06:49:25.844Z,38.29
2018-09-01T06:50:03.829Z,37.66
2018-09-01T06:50:41.820Z,38.05
2018-09-01T06:51:19.987Z,37.70
2018-09-01T06:51:57.989Z,38.37
2018-09-01T06:52:36.072Z,38.29
2018-09-01T06:53:14.051Z,38.43
2018-09-01T06:53:52.014Z,37.71
2018-09-01T06:54:29.954Z,38.03
2018-09-01T06:55:09.199Z,38.53
2018-09-01T06:55:47.306Z,37.69
2018-09-01T06:56:25.271Z,37.31
2018-09-01T06:57:03.217Z,37.95
2018-09-01T06:57:41.244Z,37.64
2018-09-01T06:58:19.200Z,38.03
2018-09-01T06:58:57.321Z,37.49
2018-09-01T06:59:35.495Z,37.94
2018-09-01T07:00:13.797Z,37.67
2018-09-01T07:00:51.705Z,37.54
2018-09-01T07:01:29.712Z,37.65
2018-09-01T07:02:07.798Z,37.40
2018-09-01T07:02:45.787Z,37.92
2018-09-01T07:03:23.827Z,37.97
2018-09-01T07:04:01.852Z,38.01
2018-09-01T07:04:39.790Z,37.19
2018-09-01T07:05:17.818Z,37.12
2018-09-01T07:05:55.916Z,37.72
2018-09-01T07:06:33.926Z,37.55
2018-09-01T07:07:11.936Z,38.12
2018-09-01T07:07:50.091Z,38.34
2018-09-01T07:08:28.103Z,37.73
2018-09-01T07:09:07.375Z,37.55
2018-09-01T07:09:45.356Z,37.42
2018-09-01T07:10:23.725Z,37.62
2018-09-01T07:11:01.708Z,38.30
2018-09-01T07:11:39.941Z,38.49
2018-09-01T07:12:17.908Z,38.41
2018-09-01T07:12:56.281Z,38.86
2018-09-01T07:13:34.255Z,38.79
2018-09-01T07:14:12.410Z,38.22
2018-09-01T07:14:50.376Z,38.89
2018-09-01T07:15:29.489Z,38.50
2018-09-01T07:16:07.781Z,38.72
2018-09-01T07:16:45.721Z,38.62
2018-09-01T07:17:23.840Z,39.36
2018-09-01T07:18:01.897Z,38.51
2018-09-01T07:18:39.939Z,39.17
2018-09-01T07:19:17.909Z,38.98
2018-09-01T07:19:55.815Z,38.21
2018-09-01T07:20:33.909Z,37.84
2018-09-01T07:21:11.837Z,38.04
2018-09-01T07:21:49.857Z,37.40
2018-09-01T07:22:27.896Z,37.59
2018-09-01T07:23:05.864Z,37.84
2018-09-01T07:23:43.787Z,37.39
2018-09-01T07:24:23.043Z,38.19
2018-09-01T07:25:01.026Z,37.80
2018-09-01T07:25:39.070Z,37.79
2018-09-01T07:26:16.964Z,37.61
2018-09-01T07:26:54.900Z,37.34
2018-09-01T07:27:32.866Z,37.12
2018-09-01T07:28:11.096Z,37.18
2018-09-01T07:28:49.145Z,37.09
2018-09-01T07:29:27.147Z,37.39
2018-09-01T07:30:05.191Z,37.13
2018-09-01T07:30:43.428Z,37.83
2018-09-01T07:31:21.800Z,37.95
2018-09-01T07:31:59.803Z,37.29
2018-09-01T07:32:37.804Z,38.48
2018-09-01T07:33:15.857Z,38.00
2018-09-01T07:33:53.946Z,38.18
2018-09-01T07:34:31.952Z,38.17
2018-09-01T07:35:10.286Z,39.01
2018-09-01T07:35:48.329Z,38.05
2018-09-01T07:36:26.265Z,38.18
2018-09-01T07:37:04.430Z,38.21
2018-09-01T07:37:42.430Z,38.66
2018-09-01T07:38:20.565Z,38.61
2018-09-01T07:38:58.724Z,38.44
2018-09-01T07:39:36.688Z,38.44
2018-09-01T07:40:14.733Z,38.42
2018-09-01T07:40:52.815Z,38.67
2018-09-01T07:41:30.819Z,38.74
2018-09-01T07:42:08.977Z,38.76
2018-09-01T07:42:46.970Z,38.24
2018-09-01T07:43:24.927Z,38.88
2018-09-01T07:44:03.063Z,38.91
2018-09-01T07:44:41.035Z,39.10
2018-09-01T07:45:19.125Z,38.72
2018-09-01T07:45:57.108Z,38.80
2018-09-01T07:46:35.154Z,38.85
2018-09-01T07:47:13.319Z,38.89
2018-09-01T07:47:51.436Z,39.75
2018-09-01T07:48:29.372Z,39.59
2018-09-01T07:49:07.379Z,39.08
2018-09-01T07:49:45.399Z,38.76
2018-09-01T07:50:24.267Z,39.38
2018-09-01T07:51:02.275Z,39.48
2018-09-01T07:51:40.321Z,40.10
2018-09-01T07:52:18.266Z,39.24
2018-09-01T07:52:56.246Z,39.98
2018-09-01T07:53:34.630Z,39.98
2018-09-01T07:54:12.683Z,39.08
2018-09-01T07:54:50.724Z,38.97
2018-09-01T07:55:28.772Z,39.80
2018-09-01T07:56:07.001Z,39.26
2018-09-01T07:56:44.984Z,39.53
2018-09-01T07:57:23.157Z,39.45
2018-09-01T07:58:01.220Z,40.52
2018-09-01T07:58:39.328Z,40.63
2018-09-01T07:59:17.242Z,40.30
2018-09-01T07:59:55.265Z,40.08
2018-09-01T08:00:33.339Z,39.92
2018-09-01T08:01:11.241Z,40.40
2018-09-01T08:01:49.228Z,40.69
2018-09-01T08:02:27.367Z,39.86
2018-09-01T08:03:05.303Z,39.08
2018-09-01T08:03:44.385Z,38.82
2018-09-01T08:04:22.435Z,38.57
2018-09-01T08:05:00.484Z,39.28
2018-09-01T08:05:38.459Z,38.63
2018-09-01T08:06:16.648Z,39.37
2018-09-01T08:06:54.734Z,39.48
2018-09-01T08:07:32.746Z,39.99
2018-09-01T08:08:10.880Z,39.75
2018-09-01T08:08:49.037Z,40.36
2018-09-01T08:09:27.048Z,39.57
2018-09-01T08:10:05.140Z,39.16
2018-09-01T08:10:43.238Z,39.75
2018-09-01T08:11:21.144Z,40.09
2018-09-01T08:11:59.193Z,40.21
2018-09-01T08:12:37.139Z,40.22
2018-09-01T08:13:15.104Z,41.58
2018-09-01T08:13:53.172Z,41.31
2018-09-01T08:14:31.338Z,42.01
2018-09-01T08:15:09.997Z,41.80
2018-09-01T08:15:47.947Z,42.39
2018-09-01T08:16:25.985Z,42.69
2018-09-01T08:17:04.262Z,41.83
2018-09-01T08:17:42.273Z,42.59
2018-09-01T08:18:20.273Z,41.93
2018-09-01T08:18:58.236Z,42.57
2018-09-01T08:19:36.414Z,42.72
2018-09-01T08:20:14.697Z,41.86
2018-09-01T08:20:52.669Z,41.31
2018-09-01T08:21:30.684Z,41.92
2018-09-01T08:22:08.909Z,41.38
2018-09-01T08:22:46.973Z,41.14
2018-09-01T08:23:25.012Z,41.80
2018-09-01T08:24:03.075Z,40.64
2018-09-01T08:24:41.139Z,41.21
2018-09-01T08:25:19.288Z,40.75
2018-09-01T08:25:57.390Z,41.52
2018-09-01T08:26:35.592Z,41.56
2018-09-01T08:27:13.752Z,40.07
2018-09-01T08:27:51.878Z,39.76
2018-09-01T08:28:29.945Z,39.48